Time;durP1;ratioP1;P1;durP2;ratioP2;P2;SDS_P1;SDS_P2;PMS_P1;PMS_P2;Temp;Humidity;BMP_temperature;BMP_pressure;BME280_temperature;BME280_humidity;BME280_pressure;Samples;Min_cycle;Max_cycle;Signal;HPM_P1;HPM_P2
2023/09/30 00:01:52;;;;;;;6.93;5.60;;;;;;;13.71;100.00;102441.56;10461012;28;20061;-68
2023/09/30 00:06:52;;;;;;;16.45;4.78;;;;;;;13.63;100.00;102445.19;10443387;28;20094;-68
2023/09/30 00:11:55;;;;;;;13.20;5.93;;;;;;;13.70;100.00;102446.16;10442261;28;20071;-68
2023/09/30 00:16:55;;;;;;;13.57;5.35;;;;;;;13.79;100.00;102454.28;10475851;28;20051;-68
2023/09/30 00:21:55;;;;;;;18.27;6.68;;;;;;;13.73;100.00;102443.06;10460523;28;20044;-67
2023/09/30 00:26:56;;;;;;;19.10;6.38;;;;;;;13.64;100.00;102444.16;10442168;28;20068;-69
2023/09/30 00:31:56;;;;;;;17.70;6.32;;;;;;;13.55;100.00;102452.56;10441722;28;20044;-69
2023/09/30 00:36:57;;;;;;;10.57;4.28;;;;;;;13.44;100.00;102462.81;10460113;28;20052;-68
2023/09/30 00:41:58;;;;;;;9.10;4.95;;;;;;;13.26;100.00;102468.50;10460242;28;20041;-68
2023/09/30 00:46:59;;;;;;;10.68;4.07;;;;;;;13.13;100.00;102473.63;10441436;28;20385;-68
2023/09/30 00:52:01;;;;;;;6.10;3.63;;;;;;;13.02;100.00;102471.31;10459649;28;20025;-67
2023/09/30 00:57:02;;;;;;;16.77;5.75;;;;;;;12.93;100.00;102480.50;10441975;28;20074;-69
2023/09/30 01:02:02;;;;;;;13.52;5.63;;;;;;;12.84;100.00;102504.16;10428618;28;20123;-68
2023/09/30 01:07:04;;;;;;;7.60;4.95;;;;;;;12.73;100.00;102501.78;10443433;28;20040;-68
2023/09/30 01:12:04;;;;;;;9.60;5.55;;;;;;;12.70;100.00;102494.84;10441088;28;20032;-68
2023/09/30 01:17:08;;;;;;;10.25;5.25;;;;;;;12.66;100.00;102496.19;10441587;28;20051;-69
2023/09/30 01:22:09;;;;;;;8.55;4.95;;;;;;;12.71;100.00;102480.22;10458987;28;20037;-69
2023/09/30 01:27:10;;;;;;;10.00;5.43;;;;;;;12.71;100.00;102488.38;10459250;28;20044;-68
2023/09/30 01:32:11;;;;;;;9.52;6.13;;;;;;;12.76;100.00;102494.16;10461911;28;20064;-69
2023/09/30 01:37:11;;;;;;;17.25;6.90;;;;;;;12.92;100.00;102487.84;10440965;28;20061;-67
2023/09/30 01:42:12;;;;;;;10.02;6.13;;;;;;;13.09;100.00;102494.06;10458407;28;20029;-67
2023/09/30 01:47:12;;;;;;;11.90;7.50;;;;;;;13.12;100.00;102484.72;10440098;28;20033;-68
2023/09/30 01:52:13;;;;;;;14.45;7.38;;;;;;;13.18;100.00;102494.88;10438642;28;20071;-67
2023/09/30 01:57:13;;;;;;;28.88;8.70;;;;;;;13.24;100.00;102491.44;10457655;28;20068;-68
2023/09/30 02:02:14;;;;;;;6.88;6.03;;;;;;;13.35;100.00;102495.69;10456605;28;20029;-69
2023/09/30 02:07:14;;;;;;;11.35;8.70;;;;;;;13.35;100.00;102492.97;10455123;28;20036;-68
2023/09/30 02:12:14;;;;;;;14.65;9.50;;;;;;;13.30;100.00;102487.19;10438583;28;20032;-68
2023/09/30 02:17:15;;;;;;;12.40;7.80;;;;;;;13.29;100.00;102480.91;10423377;28;20077;-69
2023/09/30 02:22:15;;;;;;;20.67;8.65;;;;;;;13.25;100.00;102485.03;10455917;28;20119;-69
2023/09/30 02:27:16;;;;;;;18.98;8.68;;;;;;;13.22;100.00;102477.19;10438019;28;20029;-68
2023/09/30 02:32:17;;;;;;;21.90;9.23;;;;;;;13.21;100.00;102481.78;10455007;28;20057;-68
2023/09/30 02:37:18;;;;;;;10.88;6.55;;;;;;;13.16;100.00;102473.28;10436592;28;20148;-68
2023/09/30 02:42:18;;;;;;;16.63;8.45;;;;;;;13.18;100.00;102493.00;10454852;28;20052;-69
2023/09/30 02:47:19;;;;;;;11.23;6.57;;;;;;;13.19;100.00;102482.97;10453579;28;20362;-68
2023/09/30 02:52:19;;;;;;;12.70;8.70;;;;;;;13.23;100.00;102479.72;10436854;28;20044;-67
2023/09/30 02:57:19;;;;;;;11.68;8.65;;;;;;;13.30;100.00;102479.88;10436536;28;20059;-67
2023/09/30 03:02:21;;;;;;;12.80;9.07;;;;;;;13.35;100.00;102465.75;10435818;28;20033;-69
2023/09/30 03:07:22;;;;;;;19.83;8.65;;;;;;;13.37;100.00;102458.25;10452501;28;20123;-69
2023/09/30 03:12:23;;;;;;;15.90;11.38;;;;;;;13.41;100.00;102474.06;10454210;28;20032;-67
2023/09/30 03:17:25;;;;;;;18.02;11.05;;;;;;;13.44;100.00;102470.97;10453765;28;20072;-68
2023/09/30 03:22:26;;;;;;;9.98;8.88;;;;;;;13.44;100.00;102472.88;10436935;28;20087;-67
2023/09/30 03:27:27;;;;;;;14.88;8.88;;;;;;;13.42;100.00;102464.84;10419567;28;20033;-68
2023/09/30 03:32:29;;;;;;;15.80;10.18;;;;;;;13.48;100.00;102471.47;10454667;28;20429;-68
2023/09/30 03:37:31;;;;;;;13.73;9.57;;;;;;;13.45;100.00;102469.94;10443770;28;20049;-67
2023/09/30 03:42:31;;;;;;;17.02;8.77;;;;;;;13.47;100.00;102475.22;10427923;28;20040;-69
2023/09/30 03:47:32;;;;;;;19.20;11.82;;;;;;;13.42;100.00;102462.13;10460443;28;20095;-68
2023/09/30 03:52:33;;;;;;;19.02;11.05;;;;;;;13.41;100.00;102468.63;10443153;28;20112;-68
2023/09/30 03:57:33;;;;;;;19.52;9.32;;;;;;;13.41;100.00;102471.34;10461788;28;20040;-67
2023/09/30 04:02:34;;;;;;;22.08;12.73;;;;;;;13.41;100.00;102471.34;10426368;28;20029;-67
2023/09/30 04:07:36;;;;;;;15.30;9.77;;;;;;;13.38;100.00;102466.25;10462437;28;20060;-68
2023/09/30 04:12:36;;;;;;;19.05;10.98;;;;;;;13.34;100.00;102467.63;10461322;28;20033;-68
2023/09/30 04:17:38;;;;;;;12.80;9.43;;;;;;;13.31;100.00;102468.00;10463105;28;20037;-67
2023/09/30 04:22:39;;;;;;;14.85;11.23;;;;;;;13.36;100.00;102481.06;10462264;28;20033;-69
2023/09/30 04:27:39;;;;;;;24.13;11.45;;;;;;;13.36;100.00;102487.34;10475469;28;20440;-68
2023/09/30 04:32:39;;;;;;;19.33;12.35;;;;;;;13.42;100.00;102483.06;10441587;28;20044;-67
2023/09/30 04:37:40;;;;;;;26.67;13.95;;;;;;;13.44;100.00;102487.31;10462759;28;20206;-67
2023/09/30 04:42:46;;;;;;;20.00;12.40;;;;;;;13.42;100.00;102497.50;10459445;28;20033;-67
2023/09/30 04:47:49;;;;;;;21.00;12.95;;;;;;;13.43;100.00;102496.50;10474066;28;20481;-68
2023/09/30 04:52:51;;;;;;;27.10;12.65;;;;;;;13.40;100.00;102469.66;10425066;28;20037;-68
2023/09/30 04:57:52;;;;;;;12.73;11.25;;;;;;;13.35;100.00;102496.53;10440662;28;20028;-68
2023/09/30 05:02:52;;;;;;;27.00;12.70;;;;;;;13.30;100.00;102490.75;10458269;28;20076;-67
2023/09/30 05:07:53;;;;;;;22.55;13.93;;;;;;;13.17;100.00;102495.88;10474158;28;20586;-67
2023/09/30 05:12:54;;;;;;;22.13;14.07;;;;;;;13.09;100.00;102493.22;10458552;28;20469;-67
2023/09/30 05:17:54;;;;;;;18.80;12.40;;;;;;;13.02;100.00;102493.06;10458260;28;20437;-67
2023/09/30 05:22:54;;;;;;;30.25;14.63;;;;;;;13.06;100.00;102499.84;10458021;28;20044;-68
2023/09/30 05:27:56;;;;;;;21.60;14.40;;;;;;;13.07;100.00;102503.41;10473627;28;20044;-67
2023/09/30 05:32:58;;;;;;;24.90;15.90;;;;;;;13.08;100.00;102505.09;10457664;28;20048;-67
2023/09/30 05:37:59;;;;;;;24.80;15.23;;;;;;;13.04;100.00;102502.72;10457115;28;20499;-67
2023/09/30 05:42:59;;;;;;;23.58;16.40;;;;;;;12.95;100.00;102505.63;10459352;28;20032;-67
2023/09/30 05:48:03;;;;;;;28.33;14.57;;;;;;;13.00;100.00;102514.13;10460335;28;20407;-67
2023/09/30 05:53:06;;;;;;;22.75;15.13;;;;;;;13.01;100.00;102510.38;10424393;28;20064;-68
2023/09/30 05:58:07;;;;;;;20.85;16.63;;;;;;;13.11;100.00;102502.88;10457557;28;20040;-68
2023/09/30 06:03:07;;;;;;;23.98;18.17;;;;;;;13.19;100.00;102504.72;10459114;28;20044;-69
2023/09/30 06:08:10;;;;;;;26.50;18.40;;;;;;;13.31;100.00;102508.81;10456756;28;20417;-67
2023/09/30 06:13:11;;;;;;;33.35;19.10;;;;;;;13.37;100.00;102510.81;10456983;28;20119;-67
2023/09/30 06:18:13;;;;;;;30.48;18.60;;;;;;;13.44;100.00;102511.81;10437586;28;20132;-67
2023/09/30 06:23:13;;;;;;;25.80;19.05;;;;;;;13.52;100.00;102532.69;10455314;28;20029;-67
2023/09/30 06:28:14;;;;;;;26.63;19.05;;;;;;;13.61;100.00;102545.22;10455396;28;20033;-67
2023/09/30 06:33:15;;;;;;;33.55;18.92;;;;;;;13.97;100.00;102547.41;10470409;28;20048;-68
2023/09/30 06:38:19;;;;;;;27.65;20.73;;;;;;;14.62;100.00;102546.97;10456165;28;20418;-68
2023/09/30 06:43:19;;;;;;;26.27;21.50;;;;;;;15.35;100.00;102548.06;10421524;28;20483;-67
2023/09/30 06:48:20;;;;;;;29.73;20.58;;;;;;;15.89;100.00;102562.41;10454655;28;20033;-67
2023/09/30 06:53:24;;;;;;;41.45;21.42;;;;;;;16.33;100.00;102553.22;10469911;28;20087;-68
2023/09/30 06:58:24;;;;;;;27.30;19.98;;;;;;;16.82;100.00;102561.50;10453934;28;20041;-68
2023/09/30 07:03:24;;;;;;;30.60;19.75;;;;;;;17.30;100.00;102572.56;10454326;28;20126;-68
2023/09/30 07:08:26;;;;;;;38.90;20.70;;;;;;;17.76;100.00;102582.06;10453410;28;20389;-69
2023/09/30 07:13:26;;;;;;;33.38;17.63;;;;;;;18.04;100.00;102593.78;10453969;28;20096;-68
2023/09/30 07:18:26;;;;;;;19.02;16.00;;;;;;;18.25;100.00;102580.97;10453653;28;20029;-68
2023/09/30 07:23:30;;;;;;;20.33;13.40;;;;;;;18.53;100.00;102587.13;10469958;28;20079;-69
2023/09/30 07:28:31;;;;;;;31.35;13.25;;;;;;;18.64;100.00;102591.16;10436373;28;20029;-68
2023/09/30 07:33:31;;;;;;;17.88;13.07;;;;;;;19.00;100.00;102585.28;10435886;28;20491;-67
2023/09/30 07:38:32;;;;;;;19.48;11.65;;;;;;;19.10;100.00;102587.59;10453167;28;20092;-67
2023/09/30 07:43:32;;;;;;;12.85;9.13;;;;;;;18.96;100.00;102581.28;10436049;28;20041;-69
2023/09/30 07:48:34;;;;;;;17.05;9.93;;;;;;;19.83;100.00;102581.06;10451862;28;20061;-68
2023/09/30 07:53:35;;;;;;;16.40;10.48;;;;;;;19.47;100.00;102577.78;10435416;28;20029;-68
2023/09/30 07:58:35;;;;;;;13.05;9.95;;;;;;;18.83;100.00;102566.72;10439949;28;20437;-68
2023/09/30 08:03:36;;;;;;;21.65;10.75;;;;;;;18.54;100.00;102563.31;10454503;28;20033;-69
2023/09/30 08:08:36;;;;;;;11.43;7.95;;;;;;;18.20;100.00;102565.16;10453021;28;20040;-68
2023/09/30 08:13:37;;;;;;;7.95;6.50;;;;;;;17.97;100.00;102570.16;10451362;28;20094;-68
2023/09/30 08:18:38;;;;;;;19.73;7.32;;;;;;;18.76;100.00;102564.81;10452888;28;20392;-67
2023/09/30 08:23:38;;;;;;;11.98;7.30;;;;;;;20.49;100.00;102568.84;10460610;28;20076;-69
2023/09/30 08:28:39;;;;;;;10.35;7.03;;;;;;;21.48;100.00;102567.09;10443479;28;20082;-68
2023/09/30 08:33:45;;;;;;;9.43;6.63;;;;;;;22.10;100.00;102561.41;10460373;28;20409;-68
2023/09/30 08:38:46;;;;;;;16.08;7.75;;;;;;;22.16;100.00;102574.28;10460173;28;20049;-69
2023/09/30 08:43:46;;;;;;;6.63;5.55;;;;;;;22.55;100.00;102585.78;10441375;28;20500;-67
2023/09/30 08:48:47;;;;;;;10.57;6.53;;;;;;;22.85;100.00;102594.88;10460491;28;20061;-69
2023/09/30 08:53:49;;;;;;;5.35;4.75;;;;;;;22.62;100.00;102601.19;10440810;28;20241;-68
2023/09/30 08:58:50;;;;;;;13.48;5.60;;;;;;;23.06;100.00;102623.00;10461986;28;20048;-67
2023/09/30 09:03:52;;;;;;;6.72;5.40;;;;;;;23.24;100.00;102646.94;10442858;28;20021;-69
2023/09/30 09:08:53;;;;;;;5.55;4.63;;;;;;;23.75;100.00;102642.59;10445785;28;20376;-71
2023/09/30 09:13:56;;;;;;;3.95;3.65;;;;;;;23.95;100.00;102643.00;10446353;28;20028;-70
2023/09/30 09:18:57;;;;;;;10.90;4.40;;;;;;;24.21;100.00;102649.88;10463429;28;20033;-70
2023/09/30 09:23:57;;;;;;;4.82;4.28;;;;;;;24.15;100.00;102653.63;10446755;28;20364;-70
2023/09/30 09:29:00;;;;;;;8.10;4.72;;;;;;;24.01;100.00;102643.97;10428555;28;20127;-73
2023/09/30 09:34:06;;;;;;;9.27;4.00;;;;;;;24.43;100.00;102638.16;10430156;28;20116;-71
2023/09/30 09:39:07;;;;;;;7.25;3.67;;;;;;;24.43;100.00;102646.47;10430238;28;20067;-69
2023/09/30 09:44:07;;;;;;;13.40;3.63;;;;;;;25.06;100.00;102642.56;10429250;28;20060;-69
2023/09/30 09:49:08;;;;;;;2.55;2.33;;;;;;;24.47;100.00;102654.00;10430472;28;20103;-67
2023/09/30 09:54:08;;;;;;;4.43;3.45;;;;;;;24.24;100.00;102646.63;10440552;28;20534;-66
2023/09/30 09:59:09;;;;;;;9.60;3.63;;;;;;;24.80;100.00;102631.06;10423568;28;20029;-66
2023/09/30 10:04:15;;;;;;;4.28;2.88;;;;;;;25.35;100.00;102615.59;10423637;28;20032;-66
2023/09/30 10:09:15;;;;;;;4.80;3.70;;;;;;;25.78;100.00;102610.31;10459824;28;20036;-68
2023/09/30 10:14:35;;;;;;;6.43;3.47;;;;;;;25.61;100.00;102607.63;10442708;28;20115;-68
2023/09/30 10:19:36;;;;;;;3.50;2.72;;;;;;;25.84;100.00;102610.16;10427951;28;20439;-66
2023/09/30 10:24:36;;;;;;;14.20;4.05;;;;;;;24.14;100.00;102614.06;10441649;28;20116;-67
2023/09/30 10:29:41;;;;;;;5.55;2.97;;;;;;;24.68;100.00;102607.31;10440647;28;20056;-66
2023/09/30 10:34:49;;;;;;;9.20;3.78;;;;;;;25.27;96.79;102605.78;10441192;28;20032;-67
2023/09/30 10:39:55;;;;;;;4.03;3.28;;;;;;;26.10;99.80;102602.13;10443284;28;20057;-69
2023/09/30 10:44:55;;;;;;;4.32;3.88;;;;;;;26.28;99.81;102604.53;10441332;28;20049;-67
2023/09/30 10:49:56;;;;;;;5.88;3.28;;;;;;;26.38;93.27;102604.63;10441736;28;20416;-67
2023/09/30 10:55:02;;;;;;;14.73;2.90;;;;;;;25.31;100.00;102608.88;10442517;28;20083;-68
2023/09/30 11:00:11;;;;;;;7.50;3.63;;;;;;;24.59;100.00;102609.66;10440285;28;20131;-69
2023/09/30 11:05:11;;;;;;;6.45;3.58;;;;;;;23.40;100.00;102586.22;10438204;28;20509;-66
2023/09/30 11:10:16;;;;;;;5.15;3.33;;;;;;;22.60;100.00;102588.69;10454207;28;20083;-70
2023/09/30 11:15:16;;;;;;;6.93;3.42;;;;;;;22.34;100.00;102581.69;10438322;28;20032;-68
2023/09/30 11:20:20;;;;;;;5.30;3.05;;;;;;;22.78;100.00;102587.75;10455562;28;20052;-69
2023/09/30 11:25:21;;;;;;;5.57;3.03;;;;;;;23.48;100.00;102582.22;10437139;28;20028;-69
2023/09/30 11:30:22;;;;;;;4.10;2.95;;;;;;;23.87;98.43;102601.91;10454419;28;20028;-69
2023/09/30 11:35:23;;;;;;;6.63;2.85;;;;;;;23.96;97.40;102592.09;10454155;28;20056;-68
2023/09/30 11:40:24;;;;;;;2.92;2.65;;;;;;;23.99;81.66;102590.78;10435867;28;20052;-71
2023/09/30 11:45:24;;;;;;;6.28;4.07;;;;;;;23.88;95.05;102584.22;10435425;28;20072;-70
2023/09/30 11:50:25;;;;;;;5.63;2.75;;;;;;;24.49;82.54;102577.06;10454322;28;20357;-68
2023/09/30 11:55:26;;;;;;;11.05;3.30;;;;;;;24.34;83.14;102569.28;10438836;28;20036;-68
2023/09/30 12:00:27;;;;;;;4.30;3.22;;;;;;;24.31;77.77;102571.72;10445795;28;20043;-67
2023/09/30 12:05:30;;;;;;;11.00;4.57;;;;;;;23.81;86.50;102562.22;10462857;28;20029;-67
2023/09/30 12:10:31;;;;;;;5.63;3.10;;;;;;;23.31;85.71;102560.03;10444292;28;20060;-67
2023/09/30 12:15:31;;;;;;;9.93;3.78;;;;;;;23.30;94.29;102563.06;10460795;28;20032;-66
2023/09/30 12:20:32;;;;;;;7.47;4.38;;;;;;;23.25;89.95;102576.75;10461547;28;20104;-66
2023/09/30 12:25:33;;;;;;;11.18;4.72;;;;;;;22.69;100.00;102566.03;10461290;28;20063;-69
2023/09/30 12:30:33;;;;;;;19.58;3.60;;;;;;;22.27;100.00;102577.09;10441967;28;20060;-70
2023/09/30 12:35:34;;;;;;;7.38;3.58;;;;;;;22.23;100.00;102564.81;10442465;28;20076;-69
2023/09/30 12:40:34;;;;;;;8.30;2.80;;;;;;;21.88;94.02;102567.41;10459882;28;20071;-69
2023/09/30 12:45:35;;;;;;;11.45;3.90;;;;;;;21.51;90.41;102567.47;10460196;28;20131;-69
2023/09/30 12:50:35;;;;;;;129.88;17.67;;;;;;;21.42;90.54;102568.84;10460031;28;20029;-76
2023/09/30 12:57:53;;;;;;;9.50;3.97;;;;;;;23.55;95.11;102565.53;10343877;27;20458;-45
2023/09/30 13:02:56;;;;;;;5.93;4.55;;;;;;;24.26;81.58;102555.03;10315177;28;92593;-44
2023/09/30 13:07:57;;;;;;;7.53;3.90;;;;;;;24.61;74.70;102556.78;10342577;28;20502;-41
2023/09/30 13:17:47;;;;;;;5.57;4.43;;;;;;;23.59;100.00;102522.47;10578831;27;20404;-74
2023/09/30 13:22:48;;;;;;;4.55;3.17;;;;;;;23.40;100.00;102524.56;10447891;27;20199;-76
2023/09/30 13:27:48;;;;;;;7.95;3.60;;;;;;;23.28;100.00;102516.28;10562115;27;20039;-75
2023/09/30 13:32:49;;;;;;;3.95;2.95;;;;;;;22.94;100.00;102516.09;10655346;27;20114;-78
2023/09/30 13:37:49;;;;;;;8.80;3.33;;;;;;;22.95;100.00;102528.84;10593706;27;20130;-80
2023/09/30 13:42:49;;;;;;;3.10;2.65;;;;;;;22.70;100.00;102531.78;10631114;27;20034;-79
2023/09/30 13:47:50;;;;;;;5.05;2.78;;;;;;;22.16;100.00;102525.47;10595990;28;20091;-76
2023/09/30 13:52:50;;;;;;;11.00;4.57;;;;;;;22.11;100.00;102516.16;10614244;27;20063;-79
2023/09/30 13:57:51;;;;;;;5.18;3.72;;;;;;;22.86;100.00;102502.63;10613098;27;20408;-77
2023/09/30 14:02:51;;;;;;;10.38;4.00;;;;;;;23.30;100.00;102503.06;10615087;28;20030;-75
2023/09/30 14:07:52;;;;;;;3.83;2.50;;;;;;;22.88;95.58;102500.47;10535671;27;20556;-78
2023/09/30 14:12:52;;;;;;;12.65;2.72;;;;;;;22.01;91.36;102513.97;10550774;27;20059;-75
2023/09/30 14:17:52;;;;;;;2.97;2.42;;;;;;;21.75;100.00;102506.94;10627027;27;20329;-73
2023/09/30 14:22:55;;;;;;;8.63;3.63;;;;;;;21.66;98.35;102509.16;10659325;27;20430;-77
2023/09/30 14:27:56;;;;;;;10.98;3.38;;;;;;;21.34;92.00;102516.75;10616619;27;20027;-78
2023/09/30 14:32:56;;;;;;;7.20;3.92;;;;;;;21.23;96.05;102512.03;10608126;27;20075;-80
2023/09/30 14:37:57;;;;;;;10.73;3.00;;;;;;;21.29;97.31;102513.88;10607976;27;20079;-80
2023/09/30 14:42:57;;;;;;;6.13;2.45;;;;;;;21.02;99.27;102516.06;10624763;27;20053;-81
2023/09/30 14:47:58;;;;;;;12.90;2.60;;;;;;;20.85;98.79;102502.88;10591921;27;20110;-76
2023/09/30 14:52:58;;;;;;;5.78;2.75;;;;;;;20.50;95.79;102505.28;10535658;28;20057;-77
2023/09/30 14:57:59;;;;;;;6.18;2.78;;;;;;;20.14;94.13;102506.00;10581391;28;20070;-76
2023/09/30 15:02:59;;;;;;;13.90;3.80;;;;;;;19.83;100.00;102493.94;10582319;28;20040;-76
2023/09/30 15:08:01;;;;;;;4.85;3.08;;;;;;;19.63;100.00;102491.28;10564537;28;20537;-75
2023/09/30 15:13:04;;;;;;;6.03;2.70;;;;;;;19.71;100.00;102481.94;10582084;28;20122;-74
2023/09/30 15:18:04;;;;;;;11.15;3.25;;;;;;;19.89;100.00;102471.06;10563656;28;20035;-74
2023/09/30 15:23:05;;;;;;;6.00;3.25;;;;;;;19.90;100.00;102467.25;10582046;28;20447;-75
2023/09/30 15:28:05;;;;;;;5.45;3.28;;;;;;;19.88;100.00;102468.53;10581125;28;20031;-78
2023/09/30 15:33:06;;;;;;;6.65;3.47;;;;;;;19.66;98.75;102468.88;10581466;28;20069;-75
2023/09/30 15:38:06;;;;;;;9.43;2.70;;;;;;;19.45;98.50;102458.16;10563491;28;20035;-77
2023/09/30 15:43:06;;;;;;;7.68;4.00;;;;;;;19.50;100.00;102441.88;10581117;28;20085;-75
2023/09/30 15:48:07;;;;;;;7.75;4.20;;;;;;;19.40;100.00;102449.72;10581303;28;20036;-76
2023/09/30 15:53:07;;;;;;;7.30;3.10;;;;;;;19.08;100.00;102446.06;10579739;28;20035;-74
2023/09/30 15:58:08;;;;;;;19.42;4.13;;;;;;;18.93;100.00;102443.59;10565416;28;20077;-76
2023/09/30 16:03:09;;;;;;;6.03;2.97;;;;;;;18.98;100.00;102449.25;10548426;28;20109;-75
2023/09/30 16:08:09;;;;;;;6.05;2.35;;;;;;;18.80;100.00;102442.56;10564882;28;20031;-77
2023/09/30 16:13:10;;;;;;;5.97;3.00;;;;;;;18.74;100.00;102440.69;10566184;28;20107;-75
2023/09/30 16:18:10;;;;;;;8.85;3.90;;;;;;;18.78;100.00;102461.13;10562649;28;20054;-74
2023/09/30 16:23:11;;;;;;;6.75;4.07;;;;;;;18.76;100.00;102468.75;10563296;28;20039;-76
2023/09/30 16:28:11;;;;;;;3.13;2.85;;;;;;;18.74;100.00;102461.78;10543366;28;20070;-75
2023/09/30 16:33:12;;;;;;;4.10;3.58;;;;;;;18.64;100.00;102469.59;10580335;28;20032;-76
2023/09/30 16:38:12;;;;;;;4.90;3.47;;;;;;;18.47;100.00;102474.66;10582160;28;20482;-74
2023/09/30 16:43:13;;;;;;;6.45;3.40;;;;;;;18.35;100.00;102478.03;10581362;28;20456;-76
2023/09/30 16:48:13;;;;;;;7.07;3.35;;;;;;;18.11;100.00;102475.91;10579392;28;20039;-76
2023/09/30 16:53:14;;;;;;;3.90;3.38;;;;;;;17.97;100.00;102469.59;10580660;28;20440;-76
2023/09/30 16:58:14;;;;;;;8.32;2.67;;;;;;;17.96;100.00;102472.50;10576656;28;20395;-74
2023/09/30 17:03:14;;;;;;;4.10;2.58;;;;;;;18.00;100.00;102485.63;10578423;28;20118;-73
2023/09/30 17:08:15;;;;;;;6.40;3.63;;;;;;;17.94;100.00;102477.38;10579417;28;20035;-76
2023/09/30 17:13:15;;;;;;;18.05;3.80;;;;;;;17.67;100.00;102466.31;10576849;28;20105;-76
2023/09/30 17:18:16;;;;;;;4.53;3.30;;;;;;;17.60;100.00;102477.25;10560049;28;20031;-77
2023/09/30 17:23:16;;;;;;;5.05;2.88;;;;;;;17.50;100.00;102459.53;10558207;28;20293;-74
2023/09/30 17:28:17;;;;;;;12.55;3.35;;;;;;;17.37;100.00;102455.69;10577786;28;20097;-77
2023/09/30 17:33:17;;;;;;;7.72;3.47;;;;;;;17.37;100.00;102452.94;10580347;28;20130;-75
2023/09/30 17:38:17;;;;;;;9.00;3.28;;;;;;;17.35;100.00;102445.97;10578075;28;20126;-75
2023/09/30 17:43:18;;;;;;;17.73;3.72;;;;;;;17.24;100.00;102443.84;10579087;28;20047;-77
2023/09/30 17:48:21;;;;;;;17.08;5.05;;;;;;;17.30;100.00;102468.50;10579037;28;20035;-76
2023/09/30 17:53:22;;;;;;;8.48;2.97;;;;;;;17.31;100.00;102483.88;10559498;28;20454;-75
2023/09/30 17:58:22;;;;;;;10.60;3.65;;;;;;;17.34;100.00;102479.91;10540863;28;20050;-76
2023/09/30 18:03:23;;;;;;;5.85;3.75;;;;;;;17.30;100.00;102465.78;10586424;28;20039;-75
2023/09/30 18:08:25;;;;;;;12.50;3.72;;;;;;;17.16;100.00;102466.75;10608520;28;20122;-75
2023/09/30 18:13:26;;;;;;;8.43;4.55;;;;;;;17.12;100.00;102451.78;10606567;28;20047;-75
2023/09/30 18:18:26;;;;;;;4.57;3.33;;;;;;;17.12;100.00;102438.09;10570795;28;20047;-74
2023/09/30 18:23:27;;;;;;;15.85;5.63;;;;;;;17.14;100.00;102438.75;10588362;28;20078;-75
2023/09/30 18:28:28;;;;;;;11.52;2.83;;;;;;;17.19;100.00;102442.53;10605874;28;20039;-75
2023/09/30 18:33:30;;;;;;;7.20;3.65;;;;;;;17.10;100.00;102449.25;10571656;28;20207;-75
2023/09/30 18:38:31;;;;;;;7.20;4.80;;;;;;;16.75;100.00;102442.94;10593669;28;20038;-76
2023/09/30 18:43:31;;;;;;;6.00;4.00;;;;;;;16.41;100.00;102450.03;10574917;28;20114;-75
2023/09/30 18:48:31;;;;;;;14.45;5.05;;;;;;;16.07;100.00;102442.59;10607577;28;20050;-75
2023/09/30 18:53:36;;;;;;;7.32;3.92;;;;;;;15.91;100.00;102448.34;10613154;28;20039;-75
2023/09/30 18:58:37;;;;;;;27.77;4.47;;;;;;;15.76;100.00;102423.81;10592729;28;20059;-74
2023/09/30 19:03:38;;;;;;;18.50;5.28;;;;;;;15.55;100.00;102441.84;10586324;28;20282;-74
2023/09/30 19:08:38;;;;;;;4.75;4.35;;;;;;;15.45;100.00;102438.59;10605850;28;20528;-74
2023/09/30 19:13:39;;;;;;;13.15;5.35;;;;;;;15.34;100.00;102431.72;10587941;28;20059;-75
2023/09/30 19:18:40;;;;;;;9.98;5.72;;;;;;;15.45;100.00;102441.31;10603214;28;20036;-73
2023/09/30 19:23:40;;;;;;;6.57;4.53;;;;;;;15.57;100.00;102428.84;10587629;28;20046;-74
2023/09/30 19:28:41;;;;;;;21.17;4.75;;;;;;;15.68;100.00;102418.50;10552600;28;20047;-74
2023/09/30 19:33:42;;;;;;;7.15;3.80;;;;;;;15.77;100.00;102428.25;10583701;28;20055;-76
2023/09/30 19:38:43;;;;;;;9.75;3.58;;;;;;;15.69;100.00;102417.44;10584698;28;20031;-73
2023/09/30 19:43:45;;;;;;;8.45;4.03;;;;;;;15.66;100.00;102429.56;10604064;28;20040;-74
2023/09/30 19:48:45;;;;;;;14.32;4.57;;;;;;;15.80;100.00;102436.06;10603962;28;20038;-75
2023/09/30 19:53:46;;;;;;;13.38;4.63;;;;;;;15.82;100.00;102425.75;10602667;28;20043;-77
2023/09/30 19:58:46;;;;;;;11.05;4.03;;;;;;;15.83;100.00;102429.38;10557093;28;20036;-74
2023/09/30 20:03:47;;;;;;;11.32;4.15;;;;;;;15.94;100.00;102432.41;10580962;28;20062;-74
2023/09/30 20:08:48;;;;;;;13.77;3.75;;;;;;;15.94;100.00;102432.41;10581436;28;20156;-75
2023/09/30 20:13:52;;;;;;;6.82;4.18;;;;;;;15.98;100.00;102436.41;10546018;28;20087;-77
2023/09/30 20:18:52;;;;;;;15.95;4.30;;;;;;;15.91;100.00;102437.41;10560898;28;20345;-77
2023/09/30 20:23:53;;;;;;;6.72;3.70;;;;;;;15.94;100.00;102445.22;10580299;28;20043;-73
2023/09/30 20:28:55;;;;;;;13.35;3.80;;;;;;;16.10;100.00;102458.59;10578926;28;20027;-75
2023/09/30 20:33:55;;;;;;;7.28;2.90;;;;;;;16.24;100.00;102440.44;10579129;28;20967;-76
2023/09/30 20:38:56;;;;;;;9.55;5.25;;;;;;;16.29;100.00;102435.22;10581478;28;20116;-76
2023/09/30 20:43:56;;;;;;;6.93;4.63;;;;;;;16.31;100.00;102433.16;10580947;28;20451;-77
2023/09/30 20:48:57;;;;;;;6.68;4.05;;;;;;;16.32;100.00;102440.31;10579789;28;20065;-75
2023/09/30 20:53:58;;;;;;;6.38;2.83;;;;;;;16.46;100.00;102449.44;10562662;28;20039;-77
2023/09/30 20:58:59;;;;;;;7.22;3.70;;;;;;;16.51;100.00;102445.06;10559549;28;20046;-75
2023/09/30 21:03:59;;;;;;;9.30;3.88;;;;;;;16.51;100.00;102447.81;10561481;28;20073;-76
2023/09/30 21:08:59;;;;;;;16.15;4.50;;;;;;;16.49;100.00;102447.16;10561346;28;20071;-76
2023/09/30 21:14:00;;;;;;;11.02;5.10;;;;;;;16.57;100.00;102448.91;10559242;28;20517;-76
2023/09/30 21:19:00;;;;;;;10.75;4.80;;;;;;;16.62;100.00;102429.16;10578544;28;20088;-76
2023/09/30 21:24:01;;;;;;;9.27;4.07;;;;;;;16.59;100.00;102426.81;10558678;28;20100;-77
2023/09/30 21:29:01;;;;;;;8.45;4.57;;;;;;;16.59;100.00;102441.34;10576919;28;20047;-74
2023/09/30 21:34:02;;;;;;;12.57;6.63;;;;;;;16.59;100.00;102427.69;10576971;28;20085;-76
2023/09/30 21:39:05;;;;;;;7.55;5.10;;;;;;;16.58;100.00;102390.41;10584461;28;20107;-75
2023/09/30 21:44:06;;;;;;;10.57;4.55;;;;;;;16.58;100.00;102398.63;10586388;28;20430;-75
2023/09/30 21:49:06;;;;;;;5.32;4.82;;;;;;;16.63;100.00;102395.31;10497652;28;20139;-75
2023/09/30 21:54:07;;;;;;;14.48;5.30;;;;;;;16.58;100.00;102382.22;10584287;28;20027;-77
2023/09/30 21:59:08;;;;;;;6.38;5.22;;;;;;;16.69;100.00;102394.50;10564766;28;20042;-76
2023/09/30 22:04:08;;;;;;;11.07;4.20;;;;;;;16.67;100.00;102383.75;10565586;28;20067;-77
2023/09/30 22:09:09;;;;;;;17.75;5.10;;;;;;;16.79;100.00;102392.25;10582465;28;20087;-75
2023/09/30 22:14:09;;;;;;;10.88;4.60;;;;;;;16.85;100.00;102396.09;10584150;28;20140;-74
2023/09/30 22:19:10;;;;;;;5.65;4.65;;;;;;;16.75;100.00;102363.59;10583358;28;20138;-77
2023/09/30 22:24:10;;;;;;;14.32;5.55;;;;;;;16.71;100.00;102378.72;10564698;28;20039;-76
2023/09/30 22:29:11;;;;;;;6.57;4.40;;;;;;;16.71;100.00;102378.72;10580944;28;20462;-75
2023/09/30 22:34:11;;;;;;;11.05;4.35;;;;;;;16.74;100.00;102376.41;10564034;28;20118;-75
2023/09/30 22:39:12;;;;;;;19.10;6.97;;;;;;;16.68;100.00;102369.00;10582171;28;20047;-76
2023/09/30 22:44:12;;;;;;;11.80;4.40;;;;;;;16.65;100.00;102355.72;10582280;28;20286;-76